createdAt,value
2019-04-28T00:02:05.935Z,100659.00
2019-04-28T00:04:36.577Z,100649.00
2019-04-28T00:07:07.001Z,100652.00
2019-04-28T00:09:37.403Z,100641.00
2019-04-28T00:12:08.120Z,100644.00
2019-04-28T00:14:41.634Z,100652.00
2019-04-28T00:17:12.145Z,100636.00
2019-04-28T00:19:42.571Z,100643.00
2019-04-28T00:22:22.182Z,100646.00
2019-04-28T00:25:02.705Z,100647.00
2019-04-28T00:27:33.089Z,100640.00
2019-04-28T00:30:03.686Z,100645.00
2019-04-28T00:32:34.095Z,100639.00
2019-04-28T00:35:04.791Z,100648.00
2019-04-28T00:37:37.705Z,100648.00
2019-04-28T00:40:11.263Z,100640.00
2019-04-28T00:42:41.977Z,100641.00
2019-04-28T00:45:13.474Z,100648.00
2019-04-28T00:47:43.874Z,100650.00
2019-04-28T00:50:14.610Z,100652.00
2019-04-28T00:52:45.032Z,100651.00
2019-04-28T00:55:15.729Z,100655.00
2019-04-28T00:57:46.166Z,100646.00
2019-04-28T01:00:18.901Z,100646.00
2019-04-28T01:02:50.876Z,100647.00
2019-04-28T01:05:21.964Z,100646.00
2019-04-28T01:07:52.328Z,100651.00
2019-04-28T01:10:24.086Z,100635.00
2019-04-28T01:12:55.206Z,100641.00
2019-04-28T01:15:53.430Z,100642.00
2019-04-28T01:18:50.217Z,100648.00
2019-04-28T01:21:22.288Z,100634.00
2019-04-28T01:23:52.669Z,100632.00
2019-04-28T01:26:23.070Z,100639.00
2019-04-28T01:28:53.435Z,100636.00
2019-04-28T01:31:46.235Z,100638.00
2019-04-28T01:34:21.706Z,100641.00
2019-04-28T01:36:52.172Z,100638.00
2019-04-28T01:39:22.722Z,100630.00
2019-04-28T01:41:53.159Z,100647.00
2019-04-28T01:44:23.507Z,100648.00
2019-04-28T01:46:54.976Z,100661.00
2019-04-28T01:49:25.455Z,100655.00
2019-04-28T01:52:01.098Z,100657.00
2019-04-28T01:54:31.561Z,100661.00
2019-04-28T01:57:02.424Z,100671.00
2019-04-28T01:59:33.018Z,100665.00
2019-04-28T02:02:03.512Z,100660.00
2019-04-28T02:04:34.019Z,100667.00
2019-04-28T02:07:04.572Z,100664.00
2019-04-28T02:09:35.791Z,100671.00
2019-04-28T02:12:06.299Z,100669.00
2019-04-28T02:14:37.037Z,100677.00
2019-04-28T02:17:07.536Z,100678.00
2019-04-28T02:19:37.989Z,100675.00
2019-04-28T02:22:27.319Z,100674.00
2019-04-28T02:24:58.127Z,100673.00
2019-04-28T02:27:30.205Z,100677.00
2019-04-28T02:30:00.830Z,100680.00
2019-04-28T02:32:31.662Z,100675.00
2019-04-28T02:35:02.657Z,100673.00
2019-04-28T02:37:33.013Z,100687.00
2019-04-28T02:40:03.939Z,100685.00
2019-04-28T02:42:34.445Z,100690.00
2019-04-28T02:45:05.427Z,100680.00
2019-04-28T02:47:35.792Z,100693.00
2019-04-28T02:50:17.411Z,100688.00
2019-04-28T02:53:01.623Z,100700.00
2019-04-28T02:55:31.949Z,100701.00
2019-04-28T02:58:02.431Z,100704.00
2019-04-28T03:00:32.802Z,100701.00
2019-04-28T03:03:03.270Z,100699.00
2019-04-28T03:05:33.829Z,100698.00
2019-04-28T03:08:04.291Z,100706.00
2019-04-28T03:10:35.073Z,100707.00
2019-04-28T03:13:05.516Z,100700.00
2019-04-28T03:15:36.112Z,100709.00
2019-04-28T03:18:06.573Z,100708.00
2019-04-28T03:20:37.340Z,100710.00
2019-04-28T03:23:26.932Z,100708.00
2019-04-28T03:26:06.570Z,100704.00
2019-04-28T03:28:51.782Z,100709.00
2019-04-28T03:32:09.591Z,100706.00
2019-04-28T03:34:23.366Z,100709.00
2019-04-28T03:36:53.544Z,100710.00
2019-04-28T03:39:24.232Z,100709.00
2019-04-28T03:41:54.615Z,100716.00
2019-04-28T03:44:25.444Z,100712.00
2019-04-28T03:46:56.592Z,100708.00
2019-04-28T03:49:34.121Z,100719.00
2019-04-28T03:52:07.285Z,100715.00
2019-04-28T03:54:40.679Z,100721.00
2019-04-28T03:57:11.303Z,100709.00
2019-04-28T03:59:43.719Z,100727.00
2019-04-28T04:02:15.285Z,100718.00
2019-04-28T04:04:45.906Z,100717.00
2019-04-28T04:07:16.693Z,100727.00
2019-04-28T04:10:01.688Z,100717.00
2019-04-28T04:12:41.189Z,100721.00
2019-04-28T04:15:23.689Z,100717.00
2019-04-28T04:18:11.237Z,100723.00
2019-04-28T04:20:41.604Z,100718.00
2019-04-28T04:23:11.966Z,100725.00
2019-04-28T04:25:42.330Z,100729.00
2019-04-28T04:28:13.062Z,100728.00
2019-04-28T04:30:43.468Z,100726.00
2019-04-28T04:33:13.778Z,100727.00
2019-04-28T04:35:44.144Z,100726.00
2019-04-28T04:38:14.526Z,100723.00
2019-04-28T04:40:44.873Z,100729.00
2019-04-28T04:43:15.301Z,100730.00
2019-04-28T04:45:45.628Z,100733.00
2019-04-28T04:48:15.995Z,100736.00
2019-04-28T04:50:46.812Z,100744.00
2019-04-28T04:53:17.434Z,100740.00
2019-04-28T04:55:47.769Z,100746.00
2019-04-28T04:58:21.373Z,100747.00
2019-04-28T05:01:00.937Z,100742.00
2019-04-28T05:03:33.928Z,100754.00
2019-04-28T05:06:23.246Z,100757.00
2019-04-28T05:08:53.587Z,100763.00
2019-04-28T05:11:23.956Z,100760.00
2019-04-28T05:13:55.254Z,100765.00
2019-04-28T05:16:25.605Z,100765.00
2019-04-28T05:18:56.018Z,100755.00
2019-04-28T05:21:26.855Z,100769.00
2019-04-28T05:24:25.702Z,100761.00
2019-04-28T05:26:56.039Z,100767.00
2019-04-28T05:29:28.133Z,100765.00
2019-04-28T05:31:59.755Z,100771.00
2019-04-28T05:34:31.150Z,100773.00
2019-04-28T05:37:02.190Z,100777.00
2019-04-28T05:39:32.568Z,100773.00
2019-04-28T05:42:02.981Z,100778.00
2019-04-28T05:44:33.373Z,100774.00
2019-04-28T05:47:03.743Z,100778.00
2019-04-28T05:49:53.030Z,100787.00
2019-04-28T05:53:00.859Z,100791.00
2019-04-28T05:55:55.329Z,100791.00
2019-04-28T05:58:34.823Z,100795.00
2019-04-28T06:01:20.374Z,100790.00
2019-04-28T06:03:51.117Z,100803.00
2019-04-28T06:06:23.422Z,100807.00
2019-04-28T06:09:13.840Z,100804.00
2019-04-28T06:11:44.500Z,100802.00
2019-04-28T06:14:15.251Z,100809.00
2019-04-28T06:16:45.653Z,100804.00
2019-04-28T06:19:16.038Z,100805.00
2019-04-28T06:21:46.465Z,100816.00
2019-04-28T06:24:16.833Z,100800.00
2019-04-28T06:26:47.270Z,100814.00
2019-04-28T06:29:17.589Z,100808.00
2019-04-28T06:31:48.011Z,100815.00
2019-04-28T06:34:18.371Z,100819.00
2019-04-28T06:36:49.054Z,100823.00
2019-04-28T06:39:19.420Z,100822.00
2019-04-28T06:41:49.785Z,100831.00
2019-04-28T06:44:26.726Z,100837.00
2019-04-28T06:46:57.443Z,100846.00
2019-04-28T06:49:27.923Z,100844.00
2019-04-28T06:51:58.383Z,100849.00
2019-04-28T06:54:28.784Z,100858.00
2019-04-28T06:56:59.431Z,100863.00
2019-04-28T06:59:29.843Z,100862.00
2019-04-28T07:02:00.287Z,100855.00
2019-04-28T07:04:31.025Z,100861.00
2019-04-28T07:07:01.702Z,100868.00
2019-04-28T07:09:32.171Z,100864.00
2019-04-28T07:12:02.864Z,100860.00
2019-04-28T07:14:33.269Z,100866.00
2019-04-28T07:17:03.867Z,100858.00
2019-04-28T07:19:34.217Z,100865.00
2019-04-28T07:22:09.407Z,100860.00
2019-04-28T07:24:40.232Z,100859.00
2019-04-28T07:27:13.820Z,100861.00
2019-04-28T07:29:48.142Z,100869.00
2019-04-28T07:32:18.563Z,100867.00
2019-04-28T07:34:49.260Z,100871.00
2019-04-28T07:37:20.034Z,100869.00
2019-04-28T07:39:50.354Z,100871.00
2019-04-28T07:42:21.313Z,100881.00
2019-04-28T07:44:51.645Z,100875.00
2019-04-28T07:47:22.374Z,100877.00
2019-04-28T07:49:53.109Z,100871.00
2019-04-28T07:52:47.243Z,100878.00
2019-04-28T07:55:17.689Z,100881.00
2019-04-28T07:57:48.264Z,100887.00
2019-04-28T08:00:24.022Z,100891.00
2019-04-28T08:02:54.376Z,100895.00
2019-04-28T08:05:24.804Z,100895.00
2019-04-28T08:07:55.166Z,100898.00
2019-04-28T08:10:25.676Z,100904.00
2019-04-28T08:12:56.077Z,100895.00
2019-04-28T08:15:26.490Z,100904.00
2019-04-28T08:17:57.137Z,100903.00
2019-04-28T08:20:27.427Z,100900.00
2019-04-28T08:22:57.852Z,100895.00
2019-04-28T08:25:35.799Z,100898.00
2019-04-28T08:28:05.491Z,100900.00
2019-04-28T08:30:36.146Z,100904.00
2019-04-28T08:33:25.712Z,100903.00
2019-04-28T08:35:56.121Z,100902.00
2019-04-28T08:38:26.542Z,100908.00
2019-04-28T08:40:57.204Z,100916.00
2019-04-28T08:43:32.597Z,100920.00
2019-04-28T08:46:03.024Z,100920.00
2019-04-28T08:48:33.475Z,100928.00
2019-04-28T08:51:03.968Z,100923.00
2019-04-28T08:53:34.578Z,100934.00
2019-04-28T08:56:05.381Z,100925.00
2019-04-28T08:58:42.930Z,100928.00
2019-04-28T09:01:14.613Z,100923.00
2019-04-28T09:03:48.707Z,100937.00
2019-04-28T09:06:19.187Z,100926.00
2019-04-28T09:08:50.089Z,100939.00
2019-04-28T09:11:20.713Z,100943.00
2019-04-28T09:13:51.281Z,100943.00
2019-04-28T09:16:21.998Z,100942.00
2019-04-28T09:18:52.655Z,100940.00
2019-04-28T09:21:23.450Z,100949.00
2019-04-28T09:23:54.082Z,100948.00
2019-04-28T09:26:25.347Z,100950.00
2019-04-28T09:28:56.866Z,100955.00
2019-04-28T09:31:28.250Z,100953.00
2019-04-28T09:33:58.866Z,100954.00
2019-04-28T09:36:29.706Z,100954.00
2019-04-28T09:39:00.362Z,100952.00
2019-04-28T09:41:31.293Z,100963.00
2019-04-28T09:44:07.483Z,100970.00
2019-04-28T09:46:40.699Z,100967.00
2019-04-28T09:49:11.489Z,100965.00
2019-04-28T09:51:42.638Z,100969.00
2019-04-28T09:54:13.442Z,100964.00
2019-04-28T09:56:56.062Z,100969.00
2019-04-28T09:59:16.257Z,100960.00
2019-04-28T10:01:46.645Z,100968.00
2019-04-28T10:04:17.011Z,100966.00
2019-04-28T10:06:47.342Z,100962.00
2019-04-28T10:09:17.703Z,100971.00
2019-04-28T10:11:48.097Z,100966.00
2019-04-28T10:14:19.139Z,100970.00
2019-04-28T10:16:49.740Z,100975.00
2019-04-28T10:19:21.166Z,100971.00
2019-04-28T10:21:51.572Z,100967.00
2019-04-28T10:24:22.243Z,100969.00
2019-04-28T10:26:53.215Z,100967.00
2019-04-28T10:29:23.639Z,100968.00
2019-04-28T10:31:54.144Z,100970.00
2019-04-28T10:34:24.808Z,100972.00
2019-04-28T10:36:55.583Z,100978.00
2019-04-28T10:39:30.662Z,100973.00
2019-04-28T10:42:01.087Z,100973.00
2019-04-28T10:44:33.092Z,100976.00
2019-04-28T10:47:03.807Z,100980.00
2019-04-28T10:49:34.181Z,100987.00
2019-04-28T10:52:05.311Z,100997.00
2019-04-28T10:54:36.465Z,100982.00
2019-04-28T10:57:07.044Z,101000.00
2019-04-28T10:59:37.408Z,101011.00
2019-04-28T11:02:08.497Z,101015.00
2019-04-28T11:05:08.236Z,101012.00
2019-04-28T11:07:33.415Z,101009.00
2019-04-28T11:10:20.699Z,101002.00
2019-04-28T11:12:51.248Z,101014.00
2019-04-28T11:15:35.905Z,101008.00
2019-04-28T11:18:08.920Z,100982.00
2019-04-28T11:20:39.706Z,101004.00
2019-04-28T11:23:10.332Z,101005.00
2019-04-28T11:25:40.962Z,101002.00
2019-04-28T11:28:11.482Z,101000.00
2019-04-28T11:30:41.851Z,100998.00
2019-04-28T11:33:37.442Z,100996.00
2019-04-28T11:36:07.817Z,100992.00
2019-04-28T11:38:45.098Z,100999.00
2019-04-28T11:41:15.399Z,101001.00
2019-04-28T11:43:46.058Z,100995.00
2019-04-28T11:49:08.327Z,100989.00
2019-04-28T11:51:39.047Z,100985.00
2019-04-28T11:54:09.472Z,100987.00
2019-04-28T11:56:41.499Z,100987.00
2019-04-28T11:59:12.382Z,100993.00
2019-04-28T12:01:43.167Z,100985.00
2019-04-28T12:04:15.941Z,101005.00
2019-04-28T12:06:46.757Z,100994.00
2019-04-28T12:09:27.702Z,100994.00
2019-04-28T12:11:58.927Z,100995.00
2019-04-28T12:14:35.437Z,100990.00
2019-04-28T12:17:27.885Z,100983.00
2019-04-28T12:20:11.147Z,100999.00
2019-04-28T12:22:41.797Z,101001.00
2019-04-28T12:25:12.698Z,101001.00
2019-04-28T12:27:43.437Z,101003.00
2019-04-28T12:30:14.150Z,100998.00
2019-04-28T12:32:44.661Z,101000.00
2019-04-28T12:35:15.271Z,101012.00
2019-04-28T12:37:45.633Z,101004.00
2019-04-28T12:40:16.141Z,101019.00
2019-04-28T12:42:46.546Z,101014.00
2019-04-28T12:45:17.038Z,101021.00
2019-04-28T12:47:47.723Z,101025.00
2019-04-28T12:50:33.238Z,101023.00
2019-04-28T12:53:04.073Z,101023.00
2019-04-28T12:55:34.746Z,101034.00
2019-04-28T12:58:05.092Z,101022.00
2019-04-28T13:00:50.644Z,101033.00
2019-04-28T13:03:40.367Z,101034.00
2019-04-28T13:06:13.417Z,101049.00
2019-04-28T13:08:43.725Z,101046.00
2019-04-28T13:11:14.067Z,101052.00
2019-04-28T13:13:57.587Z,101056.00
2019-04-28T13:16:27.932Z,101055.00
2019-04-28T13:18:58.292Z,101046.00
2019-04-28T13:21:28.739Z,101051.00
2019-04-28T13:23:59.669Z,101043.00
2019-04-28T13:26:30.004Z,101049.00
2019-04-28T13:29:00.422Z,101062.00
2019-04-28T13:31:31.458Z,101062.00
2019-04-28T13:34:03.039Z,101059.00
2019-04-28T13:36:33.621Z,101059.00
2019-04-28T13:39:07.411Z,101059.00
2019-04-28T13:41:37.723Z,101054.00
2019-04-28T13:44:09.820Z,101048.00
2019-04-28T13:46:40.193Z,101054.00
2019-04-28T13:49:12.554Z,101055.00
2019-04-28T13:51:43.201Z,101053.00
2019-04-28T13:54:15.358Z,101056.00
2019-04-28T13:56:45.706Z,101060.00
2019-04-28T13:59:19.312Z,101062.00
2019-04-28T14:02:11.834Z,101068.00
2019-04-28T14:04:52.119Z,101072.00
2019-04-28T14:07:24.473Z,101072.00
2019-04-28T14:09:55.718Z,101063.00
2019-04-28T14:12:26.093Z,101060.00
2019-04-28T14:14:56.749Z,101070.00
2019-04-28T14:17:27.121Z,101067.00
2019-04-28T14:19:57.728Z,101073.00
2019-04-28T14:22:28.111Z,101060.00
2019-04-28T14:24:58.932Z,101070.00
2019-04-28T14:27:29.779Z,101073.00
2019-04-28T14:30:00.737Z,101075.00
2019-04-28T14:32:31.132Z,101088.00
2019-04-28T14:35:01.997Z,101093.00
2019-04-28T14:37:32.359Z,101095.00
2019-04-28T14:40:06.633Z,101080.00
2019-04-28T14:42:37.007Z,101090.00
2019-04-28T14:45:10.472Z,101086.00
2019-04-28T14:48:24.871Z,101103.00
2019-04-28T14:50:55.284Z,101096.00
2019-04-28T14:53:25.619Z,101108.00
2019-04-28T14:55:56.560Z,101103.00
2019-04-28T14:58:27.282Z,101108.00
2019-04-28T15:01:02.934Z,101103.00
2019-04-28T15:03:35.178Z,101105.00
2019-04-28T15:06:12.856Z,101103.00
2019-04-28T15:09:20.236Z,101100.00
2019-04-28T15:11:55.044Z,101105.00
2019-04-28T15:14:25.564Z,101112.00
2019-04-28T15:16:56.033Z,101116.00
2019-04-28T15:19:26.931Z,101117.00
2019-04-28T15:21:57.644Z,101123.00
2019-04-28T15:24:28.100Z,101128.00
2019-04-28T15:26:59.046Z,101140.00
2019-04-28T15:29:29.439Z,101150.00
2019-04-28T15:31:59.905Z,101156.00
2019-04-28T15:34:30.294Z,101150.00
2019-04-28T15:37:09.608Z,101152.00
2019-04-28T15:39:33.088Z,101150.00
2019-04-28T15:42:03.454Z,101160.00
2019-04-28T15:44:34.251Z,101157.00
2019-04-28T15:47:04.891Z,101155.00
2019-04-28T15:49:35.260Z,101164.00
2019-04-28T15:52:05.727Z,101168.00
2019-04-28T15:54:36.112Z,101158.00
2019-04-28T15:57:06.519Z,101165.00
2019-04-28T15:59:37.542Z,101167.00
2019-04-28T16:02:07.942Z,101168.00
2019-04-28T16:04:38.303Z,101160.00
2019-04-28T16:07:08.650Z,101166.00
2019-04-28T16:09:41.056Z,101164.00
2019-04-28T16:12:11.716Z,101144.00
2019-04-28T16:14:42.204Z,101161.00
2019-04-28T16:17:12.654Z,101161.00
2019-04-28T16:19:43.087Z,101159.00
2019-04-28T16:22:13.545Z,101151.00
2019-04-28T16:24:44.512Z,101151.00
2019-04-28T16:27:15.296Z,101139.00
2019-04-28T16:29:45.797Z,101151.00
2019-04-28T16:32:16.176Z,101163.00
2019-04-28T16:34:46.574Z,101155.00
2019-04-28T16:37:17.039Z,101156.00
2019-04-28T16:39:47.371Z,101154.00
2019-04-28T16:42:26.869Z,101157.00
2019-04-28T16:45:10.604Z,101156.00
2019-04-28T16:47:41.005Z,101166.00
2019-04-28T16:50:11.966Z,101172.00
2019-04-28T16:52:42.812Z,101174.00
2019-04-28T16:55:23.396Z,101178.00
2019-04-28T16:58:16.043Z,101172.00
2019-04-28T17:01:08.758Z,101171.00
2019-04-28T17:03:39.179Z,101166.00
2019-04-28T17:06:09.551Z,101174.00
2019-04-28T17:08:40.200Z,101170.00
2019-04-28T17:11:10.533Z,101164.00
2019-04-28T17:13:40.945Z,101187.00
2019-04-28T17:16:11.729Z,101178.00
2019-04-28T17:18:42.337Z,101184.00
2019-04-28T17:21:13.141Z,101180.00
2019-04-28T17:23:43.556Z,101187.00
2019-04-28T17:26:13.946Z,101183.00
2019-04-28T17:28:44.548Z,101184.00
2019-04-28T17:31:15.047Z,101182.00
2019-04-28T17:33:45.621Z,101192.00
2019-04-28T17:36:15.939Z,101194.00
2019-04-28T17:38:46.678Z,101195.00
2019-04-28T17:41:17.119Z,101193.00
2019-04-28T17:43:48.229Z,101196.00
2019-04-28T17:46:18.576Z,101202.00
2019-04-28T17:48:54.767Z,101192.00
2019-04-28T17:51:25.138Z,101194.00
2019-04-28T17:53:56.181Z,101200.00
2019-04-28T17:56:27.044Z,101204.00
2019-04-28T17:58:57.368Z,101207.00
2019-04-28T18:01:45.831Z,101207.00
2019-04-28T18:04:35.455Z,101209.00
2019-04-28T18:07:13.867Z,101212.00
2019-04-28T18:09:44.289Z,101221.00
2019-04-28T18:12:14.629Z,101219.00
2019-04-28T18:14:46.640Z,101225.00
2019-04-28T18:17:47.943Z,101228.00
2019-04-28T18:20:18.695Z,101234.00
2019-04-28T18:22:49.516Z,101241.00
2019-04-28T18:25:20.203Z,101244.00
2019-04-28T18:27:50.553Z,101241.00
2019-04-28T18:30:23.311Z,101250.00
2019-04-28T18:33:12.892Z,101251.00
2019-04-28T18:35:47.051Z,101263.00
2019-04-28T18:38:34.717Z,101261.00
2019-04-28T18:41:14.371Z,101264.00
2019-04-28T18:44:07.255Z,101266.00
2019-04-28T18:46:46.795Z,101282.00
2019-04-28T18:49:17.227Z,101286.00
2019-04-28T18:51:48.339Z,101286.00
2019-04-28T18:54:18.972Z,101290.00
2019-04-28T18:56:49.324Z,101297.00
2019-04-28T18:59:19.682Z,101298.00
2019-04-28T19:02:02.518Z,101303.00
2019-04-28T19:04:33.216Z,101304.00
2019-04-28T19:07:05.645Z,101305.00
2019-04-28T19:09:52.097Z,101318.00
2019-04-28T19:12:33.673Z,101312.00
2019-04-28T19:15:35.234Z,101323.00
2019-04-28T19:18:10.686Z,101320.00
2019-04-28T19:20:41.011Z,101331.00
2019-04-28T19:23:11.346Z,101330.00
2019-04-28T19:25:42.025Z,101332.00
2019-04-28T19:28:12.443Z,101331.00
2019-04-28T19:30:45.598Z,101342.00
2019-04-28T19:33:15.448Z,101333.00
2019-04-28T19:35:46.414Z,101338.00
2019-04-28T19:38:16.732Z,101348.00
2019-04-28T19:40:47.122Z,101359.00
2019-04-28T19:43:17.464Z,101363.00
2019-04-28T19:45:49.786Z,101366.00
2019-04-28T19:48:20.118Z,101366.00
2019-04-28T19:50:50.809Z,101357.00
2019-04-28T19:53:21.155Z,101360.00
2019-04-28T19:55:58.471Z,101362.00
2019-04-28T19:58:33.441Z,101363.00
2019-04-28T20:01:10.455Z,101375.00
2019-04-28T20:03:41.567Z,101382.00
2019-04-28T20:06:11.937Z,101370.00
2019-04-28T20:08:42.303Z,101373.00
2019-04-28T20:11:12.647Z,101369.00
2019-04-28T20:13:42.983Z,101362.00
2019-04-28T20:16:13.600Z,101380.00
2019-04-28T20:18:44.580Z,101388.00
2019-04-28T20:21:14.961Z,101391.00
2019-04-28T20:23:45.654Z,101387.00
2019-04-28T20:26:16.419Z,101389.00
2019-04-28T20:28:46.742Z,101391.00
2019-04-28T20:31:17.403Z,101403.00
2019-04-28T20:33:47.753Z,101397.00
2019-04-28T20:36:33.611Z,101402.00
2019-04-28T20:39:09.470Z,101407.00
2019-04-28T20:41:39.833Z,101407.00
2019-04-28T20:44:10.178Z,101408.00
2019-04-28T20:46:40.579Z,101394.00
2019-04-28T20:49:11.089Z,101403.00
2019-04-28T20:51:41.456Z,101396.00
2019-04-28T20:54:12.189Z,101398.00
2019-04-28T20:56:42.619Z,101407.00
2019-04-28T20:59:13.445Z,101407.00
2019-04-28T21:01:44.211Z,101416.00
2019-04-28T21:04:14.566Z,101399.00
2019-04-28T21:06:45.201Z,101410.00
2019-04-28T21:09:15.990Z,101403.00
2019-04-28T21:11:46.348Z,101407.00
2019-04-28T21:14:16.693Z,101421.00
2019-04-28T21:16:47.381Z,101419.00
2019-04-28T21:19:17.717Z,101412.00
2019-04-28T21:21:48.239Z,101413.00
2019-04-28T21:24:18.597Z,101406.00
2019-04-28T21:26:48.948Z,101414.00
2019-04-28T21:29:19.589Z,101415.00
2019-04-28T21:31:49.961Z,101424.00
2019-04-28T21:34:20.324Z,101422.00
2019-04-28T21:36:50.920Z,101428.00
2019-04-28T21:39:21.569Z,101436.00
2019-04-28T21:41:52.257Z,101428.00
2019-04-28T21:44:35.737Z,101440.00
2019-04-28T21:47:16.496Z,101431.00
2019-04-28T21:49:46.852Z,101437.00
2019-04-28T21:52:17.506Z,101429.00
2019-04-28T21:54:47.871Z,101430.00
2019-04-28T21:57:18.330Z,101430.00
2019-04-28T21:59:48.723Z,101434.00
2019-04-28T22:02:19.356Z,101436.00
2019-04-28T22:04:50.031Z,101440.00
2019-04-28T22:07:20.452Z,101428.00
2019-04-28T22:09:50.916Z,101450.00
2019-04-28T22:12:21.693Z,101445.00
2019-04-28T22:14:52.025Z,101450.00
2019-04-28T22:17:22.471Z,101453.00
2019-04-28T22:19:52.849Z,101457.00
2019-04-28T22:22:23.673Z,101456.00
2019-04-28T22:25:06.947Z,101463.00
2019-04-28T22:27:41.756Z,101458.00
2019-04-28T22:30:12.398Z,101453.00
2019-04-28T22:32:43.178Z,101451.00
2019-04-28T22:35:13.860Z,101461.00
2019-04-28T22:37:44.241Z,101458.00
2019-04-28T22:40:15.215Z,101459.00
2019-04-28T22:42:45.649Z,101461.00
2019-04-28T22:45:16.735Z,101456.00
2019-04-28T22:47:47.607Z,101461.00
2019-04-28T22:50:38.518Z,101457.00
2019-04-28T22:53:08.997Z,101461.00
2019-04-28T22:55:44.482Z,101459.00
2019-04-28T22:58:33.805Z,101460.00
2019-04-28T23:01:16.367Z,101473.00
2019-04-28T23:03:51.348Z,101472.00
2019-04-28T23:06:31.909Z,101471.00
2019-04-28T23:09:02.588Z,101470.00
2019-04-28T23:11:32.941Z,101477.00
2019-04-28T23:14:03.284Z,101480.00
2019-04-28T23:16:33.900Z,101479.00
2019-04-28T23:19:06.374Z,101477.00
2019-04-28T23:21:54.336Z,101473.00
2019-04-28T23:24:24.960Z,101478.00
2019-04-28T23:26:55.316Z,101484.00
2019-04-28T23:29:25.787Z,101483.00
2019-04-28T23:31:56.768Z,101494.00
2019-04-28T23:34:27.468Z,101492.00
2019-04-28T23:36:58.197Z,101488.00
2019-04-28T23:39:28.548Z,101487.00
2019-04-28T23:42:10.377Z,101491.00
2019-04-28T23:44:41.113Z,101494.00
2019-04-28T23:47:11.499Z,101492.00
2019-04-28T23:49:41.791Z,101494.00
2019-04-28T23:52:28.701Z,101487.00
2019-04-28T23:55:01.130Z,101483.00
2019-04-28T23:57:38.945Z,101490.00
